Airfield :
LOGIN :

Register | Disclaimer

   EN    FR    IT 

 










Legend :    VFR   Marginal VFR   IFR   Intensive IFR   Very Intensive IFR
Visi :
Ceiling :
>= 8 km
>= 3000ft
5 to 8 km
1000 to 3000 ft
1500m to 5 km
500 to 1000 ft
800 to 1500m
200 to 500 ft
< 800m
< 200 ft
Symbols :   Thunderstorms  Fog  Heavy snow  Heavy precipitations  Wind > 20 kt
SIGMETs :     Misc.  Thunderstorms  Icing  Turbulence  Mountain Waves  Volcanic Ashes







- Airport Elevation : 502 ft
- IATA code : ORK


EICK - Cork

CURRENT METAR :
  • 160430Z 20005KT 9999 FEW020 SCT045 06/05 Q1015 NOSIG

EXPIRED METARs :
  • 160400Z 21006KT 9999 SCT020 06/05 Q1015 NOSIG
  • 160330Z 22009KT 9999 FEW018 06/05 Q1015 NOSIG
  • 160300Z 22012KT 9999 FEW018 06/05 Q1015 NOSIG
  • 160230Z 23010KT 9999 SCT018 06/05 Q1016 NOSIG
  • 160200Z 23011KT 9999 -SHRA SCT018 07/06 Q1016 NOSIG

TAF TAF EICK
Valid from the 16 at 00:00 until the 17 at 00:00 UTC


152300Z 1600/1624 21015KT 9999 SCT012 BKN020
TEMPO 1600/1601 22016G27KT BKN010
TEMPO 1606/1609 BKN012
BECMG 1608/1610 19015G26KT
BECMG 1610/1612 18020G32KT BKN008
BECMG 1613/1615 4000 -DZ BKN004
TEMPO 1615/1624 2000 -RADZ BKN002
PROB30
TEMPO 1615/1624 0800 FG
No reported NOTAMs for that airfield.



MET'MAP, your aeronautical weather chart ! - Copyright ORBIFLY December 2007 - Disclaimer

ORBIFLY MET'MAP TEAM :

Programming & Development : Alexandra Zaïnal
Concept & Development : Baudouin d'Aumeries
Co-Development & Prog : Marc-Olivier Méhu
Technical & hardware support : Manuel Goepfert

Contact : metmap@orbifly.com




SOURCES & CREDITS :

   NOAA